Главная страница
METAR-TAF:

METAR-TAF

Аэропорты :

Бермудские острова, Бермуды

широта: 32-22N, долгота: 064-41W, высота над уровнем моря: 6 м

Текущие метеонаблюдения

Эта сводка был подготовлена 32 минут назад, в 20:55 UTC
Ветер 7 Узел от северный, изменяющийся между северно-северо-западный и северо-восточный
Температура 25°C
Влажность 69%
Давление 1017 hPa
Видимость 10 км и более
небольшая облачность на высоте 2600 фута
небольшая облачность на высоте 3500 фута
Отдельные облака на высоте 30000 фута

METAR: TXKF 202055Z 01007KT 340V040 9999 FEW026 FEW035 SCT300 25/19 Q1017

Время: 18:27 (21:27 UTC)

Прогноз

Эта сводка был подготовлена 3 часа и 55 минут назад, в 17:32 UTC
Прогноз действительный с 20-го 18 UTC до 21-го 18 UTC
Ветер 10 Узел от северо-северо-восточный
Видимость 10 км и более
небольшая облачность на высоте 1800 фута
Отдельные облака на высоте 5000 фута
Рассеянная облачность на высоте 30000 фута

TAF: TXKF 201732Z 2018/2118 02010KT 9999 FEW018 SCT050 BKN300

Метеонаблюдения и прогнозы для более 4000 аэропортов (сводки METAR и TAF).

Имеющиеся станции представлены на карте желтыми и красными точками.

Чтобы увидеть название станции, наведите на нее мышь.

Затем щелкните, чтобы увидеть метеонаблюдения и метеопрогнозы.

Управление картой: чтобы увеличить масштаб, щелкните зеленые кнопки с черным крестиком; чтобы уменьшить масштаб, щелкните зеленую кнопку с тире; для просмотра соседних карт щелкайте зеленые стрелки.


METAR-TAF: